createdAt,value
2022-12-19T00:01:50.989Z,42.27
2022-12-19T00:04:24.010Z,42.34
2022-12-19T00:06:56.997Z,42.31
2022-12-19T00:09:30.100Z,42.25
2022-12-19T00:12:03.026Z,42.18
2022-12-19T00:14:36.036Z,42.23
2022-12-19T00:17:08.936Z,42.33
2022-12-19T00:19:42.037Z,42.39
2022-12-19T00:22:14.949Z,42.34
2022-12-19T00:24:48.033Z,42.32
2022-12-19T00:27:21.002Z,42.23
2022-12-19T00:29:54.051Z,42.29
2022-12-19T00:32:27.054Z,42.35
2022-12-19T00:34:59.962Z,42.31
2022-12-19T00:37:32.960Z,42.26
2022-12-19T00:40:06.165Z,42.37
2022-12-19T00:42:39.057Z,42.33
2022-12-19T00:45:11.985Z,42.33
2022-12-19T00:47:45.074Z,42.31
2022-12-19T00:50:17.993Z,42.44
2022-12-19T00:52:51.088Z,42.51
2022-12-19T00:55:30.001Z,42.52
2022-12-19T00:58:02.107Z,42.55
2022-12-19T01:00:30.134Z,42.57
2022-12-19T01:03:03.094Z,42.50
2022-12-19T01:05:36.103Z,42.50
2022-12-19T01:08:09.118Z,42.54
2022-12-19T01:10:42.117Z,42.49
2022-12-19T01:13:15.080Z,42.40
2022-12-19T01:15:48.153Z,42.44
2022-12-19T01:18:21.103Z,42.38
2022-12-19T01:20:54.058Z,42.44
2022-12-19T01:23:27.082Z,42.44
2022-12-19T01:26:00.088Z,42.39
2022-12-19T01:28:33.131Z,42.43
2022-12-19T01:31:07.176Z,42.50
2022-12-19T01:33:40.066Z,42.55
2022-12-19T01:36:13.021Z,42.53
2022-12-19T01:38:46.134Z,42.58
2022-12-19T01:41:19.070Z,42.54
2022-12-19T01:43:52.152Z,42.60
2022-12-19T01:46:25.249Z,42.65
2022-12-19T01:48:58.123Z,42.63
2022-12-19T01:51:30.968Z,42.68
2022-12-19T01:54:04.155Z,42.68
2022-12-19T01:56:37.034Z,42.71
2022-12-19T01:59:10.026Z,42.71
2022-12-19T02:01:51.437Z,42.74
2022-12-19T02:04:16.026Z,42.72
2022-12-19T02:06:49.130Z,42.76
2022-12-19T02:09:22.196Z,42.79
2022-12-19T02:11:55.186Z,42.76
2022-12-19T02:14:28.123Z,42.74
2022-12-19T02:17:01.183Z,42.73
2022-12-19T02:19:34.129Z,42.81
2022-12-19T02:22:07.201Z,42.82
2022-12-19T02:24:40.049Z,42.81
2022-12-19T02:27:12.932Z,42.74
2022-12-19T02:29:46.135Z,42.80
2022-12-19T02:32:19.318Z,42.76
2022-12-19T02:34:52.176Z,42.76
2022-12-19T02:37:25.209Z,42.75
2022-12-19T02:39:58.141Z,42.78
2022-12-19T02:42:31.989Z,42.68
2022-12-19T02:45:04.275Z,42.75
2022-12-19T02:47:37.390Z,42.73
2022-12-19T02:50:10.178Z,42.72
2022-12-19T02:52:43.205Z,42.68
2022-12-19T02:55:16.156Z,42.57
2022-12-19T02:57:49.244Z,42.65
2022-12-19T03:00:22.233Z,42.71
2022-12-19T03:03:00.975Z,42.76
2022-12-19T03:05:28.316Z,42.72
2022-12-19T03:08:01.194Z,42.64
2022-12-19T03:10:33.977Z,42.67
2022-12-19T03:13:07.201Z,42.61
2022-12-19T03:15:40.308Z,42.67
2022-12-19T03:18:13.413Z,42.74
2022-12-19T03:20:46.202Z,42.73
2022-12-19T03:23:19.328Z,42.76
2022-12-19T03:25:52.331Z,42.77
2022-12-19T03:28:25.308Z,42.76
2022-12-19T03:30:58.256Z,42.72
2022-12-19T03:33:31.373Z,42.70
2022-12-19T03:36:04.257Z,42.76
2022-12-19T03:38:37.354Z,42.75
2022-12-19T03:41:10.276Z,42.75
2022-12-19T03:43:43.442Z,42.77
2022-12-19T03:46:17.298Z,42.77
2022-12-19T03:48:50.501Z,42.76
2022-12-19T03:51:23.366Z,42.78
2022-12-19T03:53:56.296Z,42.74
2022-12-19T03:56:29.329Z,42.76
2022-12-19T03:59:02.399Z,42.73
2022-12-19T04:01:35.520Z,42.58
2022-12-19T04:04:08.415Z,42.61
2022-12-19T04:06:41.403Z,42.74
2022-12-19T04:09:19.218Z,42.76
2022-12-19T04:11:47.372Z,42.78
2022-12-19T04:14:20.375Z,42.80
2022-12-19T04:16:53.301Z,42.79
2022-12-19T04:19:26.530Z,42.75
2022-12-19T04:21:59.309Z,42.80
2022-12-19T04:24:32.436Z,42.77
2022-12-19T04:27:05.346Z,42.77
2022-12-19T04:29:38.458Z,42.80
2022-12-19T04:32:11.353Z,42.74
2022-12-19T04:34:44.336Z,42.86
2022-12-19T04:37:17.088Z,42.79
2022-12-19T04:39:50.382Z,42.86
2022-12-19T04:42:23.352Z,42.86
2022-12-19T04:44:56.364Z,42.87
2022-12-19T04:47:29.547Z,42.89
2022-12-19T04:50:03.195Z,42.86
2022-12-19T04:52:36.227Z,42.87
2022-12-19T04:55:09.060Z,42.87
2022-12-19T04:57:42.266Z,42.88
2022-12-19T05:00:15.095Z,42.87
2022-12-19T05:02:48.434Z,42.88
2022-12-19T05:05:21.514Z,42.85
2022-12-19T05:07:54.107Z,42.87
2022-12-19T05:10:27.396Z,42.86
2022-12-19T05:13:00.272Z,42.86
2022-12-19T05:15:33.181Z,42.83
2022-12-19T05:18:06.378Z,42.85
2022-12-19T05:20:39.505Z,42.82
2022-12-19T05:23:16.903Z,42.89
2022-12-19T05:25:45.412Z,42.89
2022-12-19T05:28:18.152Z,42.87
2022-12-19T05:30:52.639Z,42.88
2022-12-19T05:33:24.170Z,42.89
2022-12-19T05:35:57.575Z,42.89
2022-12-19T05:38:30.517Z,42.82
2022-12-19T05:41:03.450Z,42.91
2022-12-19T05:43:36.490Z,42.94
2022-12-19T05:46:09.250Z,42.95
2022-12-19T05:48:42.392Z,42.97
2022-12-19T05:51:15.574Z,42.97
2022-12-19T05:53:48.533Z,43.00
2022-12-19T05:56:21.487Z,43.00
2022-12-19T05:58:54.572Z,43.00
2022-12-19T06:01:27.627Z,42.97
2022-12-19T06:04:00.282Z,43.00
2022-12-19T06:06:33.699Z,42.91
2022-12-19T06:09:06.509Z,42.85
2022-12-19T06:11:39.526Z,42.94
2022-12-19T06:14:12.574Z,42.99
2022-12-19T06:16:45.516Z,42.87
2022-12-19T06:19:18.564Z,42.89
2022-12-19T06:21:51.699Z,42.94
2022-12-19T06:24:24.510Z,42.94
2022-12-19T06:26:57.500Z,42.93
2022-12-19T06:29:30.609Z,42.98
2022-12-19T06:32:03.607Z,42.98
2022-12-19T06:35:05.473Z,43.22
2022-12-19T06:37:09.347Z,43.09
2022-12-19T06:39:42.501Z,41.83
2022-12-19T06:42:15.491Z,41.07
2022-12-19T06:44:48.567Z,41.14
2022-12-19T06:47:21.608Z,41.89
2022-12-19T06:50:00.444Z,42.11
2022-12-19T06:52:33.692Z,42.15
2022-12-19T06:55:06.645Z,42.13
2022-12-19T06:57:39.600Z,42.29
2022-12-19T07:00:12.544Z,42.32
2022-12-19T07:02:45.890Z,42.00
2022-12-19T07:05:18.626Z,42.19
2022-12-19T07:07:51.660Z,42.30
2022-12-19T07:10:24.680Z,42.62
2022-12-19T07:12:57.566Z,42.49
2022-12-19T07:15:30.683Z,42.53
2022-12-19T07:18:03.637Z,42.56
2022-12-19T07:20:38.736Z,42.69
2022-12-19T07:23:09.800Z,42.75
2022-12-19T07:25:42.630Z,42.71
2022-12-19T07:28:15.691Z,42.76
2022-12-19T07:30:48.529Z,42.74
2022-12-19T07:33:22.272Z,42.71
2022-12-19T07:35:54.683Z,42.68
2022-12-19T07:38:27.836Z,42.72
2022-12-19T07:41:00.643Z,42.68
2022-12-19T07:43:33.519Z,42.67
2022-12-19T07:46:06.427Z,42.71
2022-12-19T07:48:39.634Z,42.70
2022-12-19T07:51:12.594Z,42.72
2022-12-19T07:53:45.861Z,42.64
2022-12-19T07:56:18.659Z,39.98
2022-12-19T07:58:51.698Z,35.52
2022-12-19T08:01:25.228Z,38.56
2022-12-19T08:03:58.660Z,39.73
2022-12-19T08:06:34.227Z,40.21
2022-12-19T08:09:15.325Z,40.45
2022-12-19T08:11:48.600Z,40.67
2022-12-19T08:14:21.590Z,40.78
2022-12-19T08:17:21.203Z,40.88
2022-12-19T08:19:27.929Z,41.04
2022-12-19T08:22:00.738Z,41.09
2022-12-19T08:24:33.718Z,41.12
2022-12-19T08:27:06.464Z,41.17
2022-12-19T08:29:39.622Z,41.23
2022-12-19T08:32:18.647Z,41.16
2022-12-19T08:34:45.719Z,41.10
2022-12-19T08:37:18.715Z,41.27
2022-12-19T08:39:51.450Z,41.26
2022-12-19T08:42:24.811Z,41.24
2022-12-19T08:44:57.684Z,41.26
2022-12-19T08:47:30.585Z,41.26
2022-12-19T08:50:03.600Z,41.24
2022-12-19T08:52:36.637Z,41.30
2022-12-19T08:55:09.745Z,41.27
2022-12-19T08:57:42.615Z,41.31
2022-12-19T09:00:15.751Z,41.27
2022-12-19T09:02:48.986Z,41.30
2022-12-19T09:06:01.283Z,41.22
2022-12-19T09:07:54.733Z,41.24
2022-12-19T09:10:27.882Z,41.28
2022-12-19T09:13:00.728Z,41.25
2022-12-19T09:15:33.906Z,41.16
2022-12-19T09:18:06.844Z,41.21
2022-12-19T09:20:39.638Z,41.24
2022-12-19T09:23:12.707Z,41.29
2022-12-19T09:25:45.948Z,41.32
2022-12-19T09:28:27.363Z,41.35
2022-12-19T09:30:51.904Z,41.40
2022-12-19T09:33:24.771Z,41.36
2022-12-19T09:35:57.785Z,41.35
2022-12-19T09:38:30.823Z,41.38
2022-12-19T09:41:04.039Z,41.38
2022-12-19T09:43:41.303Z,41.39
2022-12-19T09:46:09.895Z,41.40
2022-12-19T09:48:42.841Z,41.41
2022-12-19T09:51:15.791Z,41.44
2022-12-19T09:53:53.416Z,41.45
2022-12-19T09:56:22.040Z,41.44
2022-12-19T09:58:54.851Z,41.41
2022-12-19T10:01:28.086Z,41.42
2022-12-19T10:04:00.989Z,41.43
2022-12-19T10:06:33.953Z,41.44
2022-12-19T10:10:10.715Z,41.47
2022-12-19T10:12:39.193Z,41.45
2022-12-19T10:14:12.934Z,41.48
2022-12-19T10:17:08.522Z,41.47
2022-12-19T10:19:18.929Z,41.46
2022-12-19T10:22:16.823Z,41.42
2022-12-19T10:24:26.708Z,41.46
2022-12-19T10:26:57.975Z,41.45
2022-12-19T10:29:30.925Z,41.46
2022-12-19T10:32:03.976Z,41.50
2022-12-19T10:34:39.768Z,41.50
2022-12-19T10:37:25.226Z,41.54
2022-12-19T10:39:42.984Z,41.55
2022-12-19T10:42:15.988Z,41.57
2022-12-19T10:44:48.937Z,41.57
2022-12-19T10:47:21.902Z,41.55
2022-12-19T10:49:54.728Z,41.65
2022-12-19T10:52:28.032Z,41.65
2022-12-19T10:55:00.987Z,41.60
2022-12-19T10:57:34.137Z,41.59
2022-12-19T11:00:06.973Z,41.61
2022-12-19T11:02:40.153Z,41.54
2022-12-19T11:05:12.999Z,41.54
2022-12-19T11:07:48.899Z,41.52
2022-12-19T11:11:03.239Z,41.48
2022-12-19T11:18:21.331Z,41.51
2022-12-19T11:19:41.890Z,41.57
2022-12-19T11:25:01.778Z,41.50
2022-12-19T11:29:37.513Z,41.54
2022-12-19T11:29:37.685Z,41.61
2022-12-19T11:29:44.965Z,41.59
2022-12-19T11:30:59.412Z,41.62
2022-12-19T11:32:01.701Z,41.62
2022-12-19T11:33:19.295Z,41.62
2022-12-19T11:35:52.060Z,41.64
2022-12-19T11:38:25.077Z,41.70
2022-12-19T11:40:57.988Z,41.66
2022-12-19T11:43:47.164Z,41.68
2022-12-19T11:46:04.037Z,41.68
2022-12-19T11:48:37.098Z,41.71
2022-12-19T11:51:09.988Z,41.72
2022-12-19T11:53:42.788Z,41.74
2022-12-19T11:56:16.946Z,41.73
2022-12-19T11:58:49.162Z,41.74
2022-12-19T12:01:22.151Z,41.74
2022-12-19T12:04:01.765Z,41.75
2022-12-19T12:06:31.426Z,41.78
2022-12-19T12:10:46.065Z,41.74
2022-12-19T12:19:05.794Z,41.77
2022-12-19T12:23:14.608Z,41.72
2022-12-19T12:29:14.771Z,41.74
2022-12-19T12:31:05.107Z,41.72
2022-12-19T12:31:10.433Z,41.75
2022-12-19T12:31:29.544Z,41.71
2022-12-19T12:31:46.188Z,41.79
2022-12-19T12:35:16.580Z,41.72
2022-12-19T12:35:55.107Z,41.75
2022-12-19T12:35:57.124Z,41.74
2022-12-19T12:39:36.969Z,41.72
2022-12-19T12:42:09.865Z,41.73
2022-12-19T12:44:45.870Z,41.71
2022-12-19T12:47:15.831Z,41.71
2022-12-19T12:49:48.885Z,41.74
2022-12-19T12:52:22.123Z,41.73
2022-12-19T12:54:54.878Z,41.71
2022-12-19T12:57:27.981Z,41.72
2022-12-19T13:00:00.890Z,41.73
2022-12-19T13:02:34.262Z,41.74
2022-12-19T13:05:07.219Z,41.71
2022-12-19T13:07:40.122Z,41.72
2022-12-19T13:10:12.875Z,41.66
2022-12-19T13:12:46.125Z,41.70
2022-12-19T13:15:19.294Z,41.72
2022-12-19T13:17:51.814Z,41.70
2022-12-19T13:20:27.105Z,41.74
2022-12-19T13:22:58.065Z,41.75
2022-12-19T13:25:31.430Z,41.72
2022-12-19T13:28:03.974Z,41.72
2022-12-19T13:31:02.439Z,41.74
2022-12-19T13:33:10.141Z,41.73
2022-12-19T13:36:54.756Z,41.72
2022-12-19T13:39:52.265Z,41.75
2022-12-19T13:40:48.968Z,41.74
2022-12-19T13:43:22.014Z,41.72
2022-12-19T13:45:55.159Z,41.74
2022-12-19T13:48:28.018Z,41.74
2022-12-19T13:51:01.102Z,41.79
2022-12-19T13:53:34.246Z,41.80
2022-12-19T13:56:06.989Z,41.80
2022-12-19T13:58:39.904Z,41.79
2022-12-19T14:01:21.557Z,41.85
2022-12-19T14:03:46.132Z,41.86
2022-12-19T14:06:19.985Z,41.94
2022-12-19T14:09:03.743Z,42.00
2022-12-19T14:11:54.520Z,42.03
2022-12-19T14:14:06.371Z,42.07
2022-12-19T14:16:43.359Z,42.11
2022-12-19T14:19:04.073Z,42.14
2022-12-19T14:22:05.492Z,42.17
2022-12-19T14:24:10.224Z,42.12
2022-12-19T14:28:18.618Z,42.21
2022-12-19T14:29:15.991Z,42.21
2022-12-19T14:33:22.102Z,42.25
2022-12-19T14:36:55.312Z,42.21
2022-12-19T14:39:29.697Z,42.25
2022-12-19T14:42:02.321Z,42.25
2022-12-19T14:51:42.753Z,42.25
2022-12-19T14:54:18.062Z,42.24
2022-12-19T14:54:21.295Z,42.26
2022-12-19T14:54:22.220Z,42.24
2022-12-19T14:57:29.141Z,42.25
2022-12-19T14:59:52.022Z,42.26
2022-12-19T15:02:30.625Z,42.22
2022-12-19T15:04:58.284Z,42.25
2022-12-19T15:07:31.382Z,42.22
2022-12-19T15:11:02.549Z,42.24
2022-12-19T15:14:48.708Z,42.28
2022-12-19T15:15:10.320Z,42.20
2022-12-19T15:17:43.552Z,42.25
2022-12-19T15:20:17.352Z,42.21
2022-12-19T15:22:50.105Z,42.34
2022-12-19T15:26:01.425Z,42.28
2022-12-19T15:27:56.157Z,42.32
2022-12-19T15:30:29.060Z,42.34
2022-12-19T15:33:02.452Z,42.35
2022-12-19T15:35:35.371Z,42.41
2022-12-19T15:38:08.444Z,42.36
2022-12-19T15:40:41.063Z,42.40
2022-12-19T15:43:37.049Z,42.33
2022-12-19T15:45:47.445Z,42.48
2022-12-19T15:48:20.582Z,42.36
2022-12-19T15:50:54.431Z,42.46
2022-12-19T15:53:39.853Z,42.49
2022-12-19T15:56:00.453Z,42.48
2022-12-19T15:58:33.350Z,42.46
2022-12-19T16:01:06.381Z,42.55
2022-12-19T16:03:39.605Z,42.54
2022-12-19T16:06:12.347Z,42.58
2022-12-19T16:08:45.417Z,42.65
2022-12-19T16:11:18.470Z,42.64
2022-12-19T16:13:51.371Z,42.65
2022-12-19T16:16:24.457Z,42.61
2022-12-19T16:18:57.513Z,42.57
2022-12-19T16:21:34.329Z,42.29
2022-12-19T16:24:03.467Z,42.19
2022-12-19T16:26:36.578Z,42.31
2022-12-19T16:29:10.407Z,42.38
2022-12-19T16:31:43.327Z,42.33
2022-12-19T16:34:16.169Z,42.38
2022-12-19T16:36:49.152Z,42.43
2022-12-19T16:39:22.163Z,42.47
2022-12-19T16:41:55.466Z,42.53
2022-12-19T16:44:28.410Z,42.47
2022-12-19T16:47:01.600Z,42.50
2022-12-19T16:49:34.493Z,42.52
2022-12-19T16:52:07.545Z,42.55
2022-12-19T16:54:40.559Z,42.59
2022-12-19T16:57:13.157Z,42.58
2022-12-19T16:59:46.377Z,42.61
2022-12-19T17:02:19.469Z,42.51
2022-12-19T17:04:54.273Z,42.50
2022-12-19T17:07:25.533Z,42.53
2022-12-19T17:09:58.577Z,42.52
2022-12-19T17:12:31.527Z,42.51
2022-12-19T17:15:04.663Z,42.52
2022-12-19T17:17:37.499Z,42.51
2022-12-19T17:20:10.566Z,42.49
2022-12-19T17:22:43.284Z,42.52
2022-12-19T17:25:16.239Z,42.57
2022-12-19T17:27:49.278Z,42.59
2022-12-19T17:30:22.559Z,42.60
2022-12-19T17:32:55.253Z,42.63
2022-12-19T17:35:28.470Z,42.69
2022-12-19T17:38:01.553Z,42.71
2022-12-19T17:40:34.310Z,42.73
2022-12-19T17:43:07.294Z,42.74
2022-12-19T17:45:40.337Z,42.82
2022-12-19T17:48:13.579Z,42.88
2022-12-19T17:50:46.429Z,42.78
2022-12-19T17:53:19.276Z,42.80
2022-12-19T17:55:52.424Z,42.83
2022-12-19T17:58:25.375Z,42.92
2022-12-19T18:00:58.488Z,42.87
2022-12-19T18:03:31.333Z,42.92
2022-12-19T18:06:10.226Z,42.87
2022-12-19T18:08:38.689Z,42.92
2022-12-19T18:11:11.333Z,42.96
2022-12-19T18:13:44.530Z,43.02
2022-12-19T18:16:17.376Z,43.01
2022-12-19T18:18:50.562Z,42.97
2022-12-19T18:21:23.340Z,42.98
2022-12-19T18:23:56.309Z,42.99
2022-12-19T18:26:29.323Z,42.99
2022-12-19T18:29:02.368Z,42.95
2022-12-19T18:31:35.737Z,42.97
2022-12-19T18:34:08.545Z,42.97
2022-12-19T18:36:41.550Z,42.99
2022-12-19T18:39:14.394Z,43.00
2022-12-19T18:41:47.472Z,43.01
2022-12-19T18:44:20.502Z,42.99
2022-12-19T18:46:53.729Z,43.04
2022-12-19T18:49:26.725Z,42.98
2022-12-19T18:51:59.656Z,42.97
2022-12-19T18:54:32.649Z,42.98
2022-12-19T18:57:05.669Z,42.99
2022-12-19T18:59:38.794Z,43.02
2022-12-19T19:02:11.903Z,43.01
2022-12-19T19:04:44.681Z,42.98
2022-12-19T19:07:17.430Z,42.95
2022-12-19T19:09:50.386Z,42.96
2022-12-19T19:12:23.564Z,42.96
2022-12-19T19:14:56.496Z,42.97
2022-12-19T19:17:29.693Z,42.96
2022-12-19T19:20:02.703Z,42.99
2022-12-19T19:22:35.833Z,42.95
2022-12-19T19:25:08.755Z,42.88
2022-12-19T19:27:41.766Z,42.87
2022-12-19T19:30:14.687Z,42.91
2022-12-19T19:32:47.393Z,42.91
2022-12-19T19:35:20.419Z,42.93
2022-12-19T19:37:53.611Z,42.95
2022-12-19T19:40:26.643Z,42.95
2022-12-19T19:42:59.725Z,42.91
2022-12-19T19:45:34.547Z,42.92
2022-12-19T19:48:05.826Z,42.95
2022-12-19T19:50:38.597Z,42.96
2022-12-19T19:53:11.717Z,42.95
2022-12-19T19:55:44.587Z,42.97
2022-12-19T19:58:17.476Z,43.00
2022-12-19T20:00:50.468Z,42.95
2022-12-19T20:03:24.149Z,42.74
2022-12-19T20:05:56.566Z,42.86
2022-12-19T20:08:35.183Z,42.81
2022-12-19T20:11:02.630Z,42.89
2022-12-19T20:13:35.724Z,42.86
2022-12-19T20:16:08.859Z,42.89
2022-12-19T20:18:41.626Z,42.88
2022-12-19T20:21:14.480Z,42.96
2022-12-19T20:23:47.765Z,42.90
2022-12-19T20:26:20.487Z,42.97
2022-12-19T20:28:53.703Z,42.91
2022-12-19T20:31:26.752Z,42.97
2022-12-19T20:33:59.715Z,42.96
2022-12-19T20:36:32.506Z,42.97
2022-12-19T20:39:05.653Z,42.92
2022-12-19T20:41:38.630Z,42.92
2022-12-19T20:44:11.671Z,43.00
2022-12-19T20:46:45.025Z,42.98
2022-12-19T20:49:17.535Z,43.00
2022-12-19T20:51:50.546Z,43.02
2022-12-19T20:54:23.596Z,43.04
2022-12-19T20:56:56.873Z,43.01
2022-12-19T20:59:29.632Z,42.99
2022-12-19T21:02:02.709Z,42.95
2022-12-19T21:04:36.032Z,43.00
2022-12-19T21:07:08.683Z,43.01
2022-12-19T21:09:41.623Z,43.01
2022-12-19T21:12:20.612Z,42.97
2022-12-19T21:14:53.759Z,43.03
2022-12-19T21:17:26.802Z,42.99
2022-12-19T21:19:59.862Z,42.94
2022-12-19T21:22:32.900Z,42.94
2022-12-19T21:25:05.978Z,42.93
2022-12-19T21:27:38.630Z,42.97
2022-12-19T21:30:11.599Z,42.54
2022-12-19T21:32:44.851Z,41.99
2022-12-19T21:35:17.602Z,41.94
2022-12-19T21:37:50.825Z,42.30
2022-12-19T21:40:23.633Z,42.41
2022-12-19T21:42:56.635Z,42.48
2022-12-19T21:45:29.680Z,42.55
2022-12-19T21:48:02.718Z,42.53
2022-12-19T21:50:35.682Z,42.66
2022-12-19T21:53:08.761Z,42.59
2022-12-19T21:55:42.017Z,42.68
2022-12-19T21:58:14.940Z,42.72
2022-12-19T22:00:48.005Z,42.72
2022-12-19T22:03:21.058Z,42.71
2022-12-19T22:05:53.965Z,42.74
2022-12-19T22:08:27.046Z,42.67
2022-12-19T22:10:59.992Z,42.77
2022-12-19T22:13:33.061Z,42.77
2022-12-19T22:16:06.023Z,42.79
2022-12-19T22:18:39.023Z,42.72
2022-12-19T22:21:11.973Z,42.72
2022-12-19T22:23:44.853Z,42.70
2022-12-19T22:26:17.971Z,42.73
2022-12-19T22:28:51.072Z,42.83
2022-12-19T22:31:24.274Z,42.79
2022-12-19T22:33:58.064Z,42.72
2022-12-19T22:36:31.093Z,42.72
2022-12-19T22:39:04.071Z,42.78
2022-12-19T22:41:37.136Z,42.71
2022-12-19T22:44:09.943Z,42.71
2022-12-19T22:46:43.011Z,42.76
2022-12-19T22:49:16.075Z,42.79
2022-12-19T22:51:49.105Z,42.79
2022-12-19T22:54:21.990Z,42.86
2022-12-19T22:56:55.047Z,42.83
2022-12-19T22:59:28.101Z,42.92
2022-12-19T23:02:01.468Z,42.95
2022-12-19T23:04:34.017Z,42.93
2022-12-19T23:07:07.122Z,42.97
2022-12-19T23:09:40.027Z,43.01
2022-12-19T23:12:13.051Z,43.02
2022-12-19T23:14:46.109Z,43.06
2022-12-19T23:17:19.050Z,43.10
2022-12-19T23:19:52.131Z,43.17
2022-12-19T23:22:25.046Z,43.17
2022-12-19T23:24:58.128Z,43.21
2022-12-19T23:27:31.159Z,43.25
2022-12-19T23:30:04.178Z,43.20
2022-12-19T23:32:37.146Z,43.20
2022-12-19T23:35:10.058Z,43.27
2022-12-19T23:37:43.139Z,43.27
2022-12-19T23:40:16.145Z,43.28
2022-12-19T23:42:49.147Z,43.28
2022-12-19T23:45:22.181Z,43.32
2022-12-19T23:47:55.229Z,43.34
2022-12-19T23:50:28.115Z,43.32
2022-12-19T23:53:01.059Z,43.33
2022-12-19T23:55:34.097Z,43.35
2022-12-19T23:58:13.623Z,43.32
